Pagina principale
METAR-TAF:

METAR-TAF

Aeroporti :

Şanlıurfa, Turchia

latitudine: 37-27N, longitudine: 38-54E, altezza: 823 m

Osservazione

Il bollettino è stato emesso 37 minuti fa, alle 21:50 UTC
Vento 8 kt da nord-est
Temperature 19°C
Umidità 34%
Pressione 1022 hPa
Visibilità 10 km o più
nessuna nube inferiore a 1500 m e nessun cumulonembo

METAR: LTCS 212150Z 04008KT CAVOK 19/03 Q1022 RMK RWY22 07008KT SKC

Ora: 01:27 (22:27 UTC)

Previsione

Il bollettino è stato emesso 5 ore e 47 minuti fa, alle 16:40 UTC
Previsione valida dal 21 alle 18 UTC al 22 alle 18 UTC
Vento 2 kt da direzioni variabili
Visibilità 10 km o più
nessuna nube inferiore a 1500 m e nessun cumulonembo

TAF: LTCS 211640Z 2118/2218 VRB02KT CAVOK

Osservazioni e previsioni meteorologiche di più di 4000 aeroporti (messaggi METAR e TAF).

Le stazioni disponibili sono rappresentate dai dischi gialli e rossi sulla carta.

Puntare il mouse per vedere il nome della stazione.

Clicca sopra per visualizzare le osservazioni e previsioni meteorologiche.

Per cambiare la mappa : fare clic sui pulsanti verdi con una croce nera per ingrandire, il pulsante verde con un trattino per diminuire, o sulla freccia verde per le mappe adiacenti.


METAR-TAF: